Detalhes do Voo

Voltar

 DETALHES DO VÔO

Piloto: GLD797 Paulo C. Aeronave: Daher Distância: 442NM
Origem: SBNF Destino: SIGJ Duração: 2.65
Validação: Validado Tipo: Charter Matrícula: PR-GVG
ZFW: 4910 Block Fuel/Init FOB 683/0 Combustível em Voo 683
Passageiros: 4 Carga: 100 Alternativo: SBRJ
Hora da Decolagem: 1313 Velocidade de Cruzeiro: 170 Nível de Voo: 055
Regra Visual: VFR ICAO da Aeronave: TBM9 Unidade de Peso: Kg
Data: 20/01/2024 Observação: GOLD ACARS Rede: IVAO
Acidentou?: Não Comentários do Validador: Pontuação do Voo 108.108

 ROTA

ROTA DCT 2554S04834W DCT SSMW DCT 2331S04505W DCT
REMARKS OPR/GOLD VIRTUAL AIRLINES PER/B RMK/FROM SBNF RMK/PIC GLD797

 PENALIDADES DO VOO

Para entender como cada item é pontuado, consulte as regras de avaliação.

Nenhuma penalidade registrada para este voo.

 ANÁLISE DO POUSO

Vento durante o pouso: 121º/5 kt Proa durante o pouso: 66
V/S do Pouso: -173 ft/min IAS do Pouso: 82 kt
Força G no pouso: 1.152 G Bank no pouso: -0.63
Pitch no Pouso -0.44 Flaps no Pouso 100
Nav Lights ON Landing Lights ON
Beacon Lights ON Strobe Lights ON

 MAPA DO VOO

 PERFIL VERTICAL DO VOO

 EVENTOS PRINCIPAIS DO VOO

DATAEVENTOIASALTITUDE
2024-01-20 13:13:52 GOLD ACARS VERSION 3.2.0.000
2024-01-20 13:13:52 BOARDING0247
2024-01-20 13:13:52 STARTING ENGINE 10247
2024-01-20 13:13:52 LITTLENAVMAP ON0247
2024-01-20 13:13:53 BEACON LIGHT OFF & ENGINE ON0247
2024-01-20 13:13:55 BCN LIGHTS ON0247
2024-01-20 13:14:16 TAXI LIGHTS ON0247
2024-01-20 13:14:26 TAXI TO THE RWY0247
2024-01-20 13:27:06 FLAP 50%9250
2024-01-20 13:30:11 STB LIGHTS ON0249
2024-01-20 13:31:14 GEAR UP12930
2024-01-20 13:31:16 CLIMBING13551
2024-01-20 13:32:02 AP ENGAGED1221798
2024-01-20 13:32:33 FLAP 0%1062953
2024-01-20 13:33:17 CRUISE1304278
2024-01-20 13:33:20 CLIMBING1384287
2024-01-20 13:34:04 CRUISE1355568
2024-01-20 13:48:11 SIM PAUSED1725570
2024-01-20 13:49:03 SIM UNPAUSED1725570
2024-01-20 14:03:22 TAXI LIGHTS OFF1715576
2024-01-20 14:10:08 DESCEND1735627
2024-01-20 15:45:21 AP DISENGAGED1722948
2024-01-20 15:46:52 GEAR DOWN137502
2024-01-20 15:47:05 FLAP 50%122383
2024-01-20 15:47:36 FLAP 100%110128
2024-01-20 15:47:40 CLIMBING108128
2024-01-20 15:47:45 CRUISE90189
2024-01-20 15:47:57 CLIMBING79217
2024-01-20 15:48:08 CRUISE77314
2024-01-20 15:48:22 CLIMBING80382
2024-01-20 15:48:26 CRUISE79411
2024-01-20 15:48:31 LANDING84407
2024-01-20 15:48:53 CLIMBING87388
2024-01-20 15:49:04 CRUISE75554
2024-01-20 15:49:17 CLIMBING82577
2024-01-20 15:50:11 CRUISE82992
2024-01-20 15:50:16 LANDING85984
2024-01-20 15:50:52 CLIMBING100594
2024-01-20 15:50:56 CRUISE96629
2024-01-20 15:50:56 LANDING97624
2024-01-20 15:51:54 LANDED - VS: -173 ft/min 8252
2024-01-20 15:52:08 TAXI TO THE GATE2450
2024-01-20 15:52:51 AT THE GATE1748
2024-01-20 15:53:06 LANDED NOT IN THE PLANNED AIRPORT [SBMC] - [lat: -22,920189885872] - [long: -42,8282498080541]348
2024-01-20 15:53:07 FLIGHT FINISHED348

 DADOS DO ACARS

DATA IAS GS ALTITUDE COMBUSTÍVEL USADO OAT FASE DO VOO
2024-01-20 13:15:52 0 0 249 2 30 TAXI TO THE RWY
2024-01-20 13:16:53 0 0 249 3 30 TAXI TO THE RWY
2024-01-20 13:17:53 0 0 249 4 30 TAXI TO THE RWY
2024-01-20 13:18:54 0 0 249 6 30 TAXI TO THE RWY
2024-01-20 13:19:54 0 0 249 7 30 TAXI TO THE RWY
2024-01-20 13:20:55 0 0 249 8 30 TAXI TO THE RWY
2024-01-20 13:21:55 0 0 249 10 30 TAXI TO THE RWY
2024-01-20 13:22:56 0 0 249 11 30 TAXI TO THE RWY
2024-01-20 13:23:56 0 0 248 12 30 TAXI TO THE RWY
2024-01-20 13:24:57 0 0 248 14 30 TAXI TO THE RWY
2024-01-20 13:25:57 0 0 248 15 30 TAXI TO THE RWY
2024-01-20 13:26:58 1 13 249 16 30 TAXI TO THE RWY
2024-01-20 13:27:59 10 12 247 18 30 TAXI TO THE RWY
2024-01-20 13:28:59 15 14 249 19 30 TAXI TO THE RWY
2024-01-20 13:30:00 6 0 249 21 30 TAXI TO THE RWY
2024-01-20 13:31:00 87 93 22 24 30 TAXI TO THE RWY
2024-01-20 13:32:01 123 133 1692 28 24 TAXI TO THE RWY
2024-01-20 13:33:01 117 123 3791 32 20 CLIMBING
2024-01-20 13:34:02 132 146 5545 36 17 CLIMBING
2024-01-20 13:35:02 183 215 5586 39 17 CLIMBING
2024-01-20 13:36:03 188 221 5585 42 17 CRUISE
2024-01-20 13:37:03 190 221 5584 44 17 CRUISE
2024-01-20 13:38:04 174 203 5567 47 17 CRUISE
2024-01-20 13:39:04 171 200 5569 49 17 CRUISE
2024-01-20 13:40:05 175 204 5571 52 17 CRUISE
2024-01-20 13:41:05 174 202 5571 54 17 CRUISE
2024-01-20 13:42:05 174 201 5570 57 17 CRUISE
2024-01-20 13:43:06 172 200 5572 59 17 CRUISE
2024-01-20 13:44:06 173 202 5573 62 18 CRUISE
2024-01-20 13:45:07 173 201 5569 64 18 CRUISE
2024-01-20 13:46:07 174 201 5572 67 18 CRUISE
2024-01-20 13:47:07 172 200 5567 69 18 CRUISE
2024-01-20 13:48:08 172 200 5570 72 18 CRUISE
2024-01-20 13:49:09 172 199 5569 72 18 CRUISE
2024-01-20 13:50:09 172 199 5568 75 18 CRUISE
2024-01-20 13:51:09 173 205 5573 77 18 CRUISE
2024-01-20 13:52:10 173 211 5573 80 18 CRUISE
2024-01-20 13:53:10 172 211 5572 82 18 CRUISE
2024-01-20 13:54:11 172 211 5570 84 18 CRUISE
2024-01-20 13:55:11 172 212 5573 87 18 CRUISE
2024-01-20 13:56:12 172 212 5569 89 18 CRUISE
2024-01-20 13:57:12 172 212 5569 92 18 CRUISE
2024-01-20 13:58:13 172 212 5568 94 18 CRUISE
2024-01-20 13:59:13 172 212 5571 97 18 CRUISE
2024-01-20 14:00:14 172 213 5570 99 18 CRUISE
2024-01-20 14:01:14 172 213 5567 102 19 CRUISE
2024-01-20 14:02:14 172 213 5566 104 19 CRUISE
2024-01-20 14:03:15 172 213 5574 107 19 CRUISE
2024-01-20 14:04:15 172 214 5576 109 18 CRUISE
2024-01-20 14:05:15 173 214 5578 112 18 CRUISE
2024-01-20 14:06:16 173 214 5582 114 18 CRUISE
2024-01-20 14:07:16 174 214 5578 117 18 CRUISE
2024-01-20 14:08:17 173 213 5577 119 18 CRUISE
2024-01-20 14:09:17 173 213 5575 121 18 CRUISE
2024-01-20 14:10:18 175 214 5584 124 18 CRUISE
2024-01-20 14:11:18 172 211 5582 126 18 DESCEND
2024-01-20 14:12:19 172 211 5581 129 18 DESCEND
2024-01-20 14:13:19 172 211 5584 131 18 DESCEND
2024-01-20 14:14:20 200 238 5587 134 18 DESCEND
2024-01-20 14:15:20 200 240 5573 136 18 DESCEND
2024-01-20 14:16:20 193 230 5569 139 18 DESCEND
2024-01-20 14:17:21 197 234 5579 141 18 DESCEND
2024-01-20 14:18:21 173 209 5569 144 18 DESCEND
2024-01-20 14:19:22 171 208 5568 146 18 DESCEND
2024-01-20 14:20:22 172 209 5574 149 18 DESCEND
2024-01-20 14:21:22 172 209 5573 151 18 DESCEND
2024-01-20 14:22:23 168 205 5583 154 18 DESCEND
2024-01-20 14:23:23 172 209 5584 156 18 DESCEND
2024-01-20 14:24:24 172 209 5586 159 18 DESCEND
2024-01-20 14:25:24 173 207 5587 161 18 DESCEND
2024-01-20 14:26:25 172 206 5576 164 18 DESCEND
2024-01-20 14:27:25 173 213 5586 166 18 DESCEND
2024-01-20 14:28:26 173 212 5587 169 18 DESCEND
2024-01-20 14:29:26 172 211 5586 171 18 DESCEND
2024-01-20 14:30:27 172 207 5582 173 18 DESCEND
2024-01-20 14:31:27 172 204 4724 176 20 DESCEND
2024-01-20 14:32:27 154 186 4583 178 20 DESCEND
2024-01-20 14:33:28 151 183 4583 180 20 DESCEND
2024-01-20 14:34:28 150 182 4586 182 20 DESCEND
2024-01-20 14:35:28 150 181 4586 184 20 DESCEND
2024-01-20 14:36:29 150 180 4587 187 20 DESCEND
2024-01-20 14:37:29 154 184 4596 189 20 DESCEND
2024-01-20 14:38:30 154 182 4597 191 20 DESCEND
2024-01-20 14:39:30 150 176 4592 193 20 DESCEND
2024-01-20 14:40:31 150 174 4586 195 20 DESCEND
2024-01-20 14:41:31 149 179 4595 198 20 DESCEND
2024-01-20 14:42:32 149 178 4593 200 20 DESCEND
2024-01-20 14:43:32 152 182 4601 202 20 DESCEND
2024-01-20 14:44:33 151 180 4598 204 20 DESCEND
2024-01-20 14:45:33 150 180 4598 206 20 DESCEND
2024-01-20 14:46:34 150 180 4598 209 20 DESCEND
2024-01-20 14:47:34 150 178 4600 211 20 DESCEND
2024-01-20 14:48:34 149 178 4599 213 20 DESCEND
2024-01-20 14:49:34 150 180 4598 215 20 DESCEND
2024-01-20 14:50:35 152 181 4602 217 20 DESCEND
2024-01-20 14:51:35 150 180 4598 219 20 DESCEND
2024-01-20 14:52:36 155 183 4592 222 20 DESCEND
2024-01-20 14:53:36 151 177 4590 224 20 DESCEND
2024-01-20 14:54:37 149 180 4601 226 20 DESCEND
2024-01-20 14:55:37 151 180 4601 228 19 DESCEND
2024-01-20 14:56:38 152 181 4596 230 19 DESCEND
2024-01-20 14:57:38 154 184 4597 233 19 DESCEND
2024-01-20 14:58:39 151 180 4588 235 19 DESCEND
2024-01-20 14:59:39 151 180 4590 237 19 DESCEND
2024-01-20 15:00:40 151 180 4592 239 19 DESCEND
2024-01-20 15:01:40 150 179 4590 241 19 DESCEND
2024-01-20 15:02:41 150 179 4584 244 19 DESCEND
2024-01-20 15:03:41 149 179 4593 246 19 DESCEND
2024-01-20 15:04:41 151 180 4592 248 19 DESCEND
2024-01-20 15:05:42 150 180 4593 250 20 DESCEND
2024-01-20 15:06:42 150 179 4590 252 20 DESCEND
2024-01-20 15:07:43 150 180 4592 255 20 DESCEND
2024-01-20 15:08:43 150 179 4593 257 20 DESCEND
2024-01-20 15:09:43 151 180 4592 259 20 DESCEND
2024-01-20 15:10:44 150 180 4593 261 20 DESCEND
2024-01-20 15:11:44 151 181 4595 263 20 DESCEND
2024-01-20 15:12:45 151 181 4596 265 20 DESCEND
2024-01-20 15:13:45 150 180 4596 268 20 DESCEND
2024-01-20 15:14:46 150 180 4597 270 20 DESCEND
2024-01-20 15:15:46 150 180 4597 272 20 DESCEND
2024-01-20 15:16:47 151 180 4598 274 20 DESCEND
2024-01-20 15:17:47 151 180 4597 276 20 DESCEND
2024-01-20 15:18:48 151 179 4598 279 20 DESCEND
2024-01-20 15:19:48 151 179 4600 281 20 DESCEND
2024-01-20 15:20:49 151 179 4601 283 20 DESCEND
2024-01-20 15:21:49 151 178 4600 285 20 DESCEND
2024-01-20 15:22:49 150 178 4596 287 20 DESCEND
2024-01-20 15:23:50 150 178 4597 290 20 DESCEND
2024-01-20 15:24:50 150 178 4595 292 20 DESCEND
2024-01-20 15:25:50 151 179 4597 294 20 DESCEND
2024-01-20 15:26:51 151 179 4597 296 20 DESCEND
2024-01-20 15:27:51 151 178 4597 298 20 DESCEND
2024-01-20 15:28:52 151 178 4592 301 20 DESCEND
2024-01-20 15:29:53 150 177 4594 303 20 DESCEND
2024-01-20 15:30:53 150 178 4597 305 20 DESCEND
2024-01-20 15:31:53 151 173 3493 307 23 DESCEND
2024-01-20 15:32:54 162 184 2964 309 24 DESCEND
2024-01-20 15:33:54 169 191 2963 311 24 DESCEND
2024-01-20 15:34:55 172 194 2962 314 24 DESCEND
2024-01-20 15:35:55 170 191 2959 316 24 DESCEND
2024-01-20 15:36:56 172 192 2961 319 24 DESCEND
2024-01-20 15:37:56 172 193 2960 321 24 DESCEND
2024-01-20 15:38:57 170 191 2956 324 24 DESCEND
2024-01-20 15:39:57 172 194 2960 326 24 DESCEND
2024-01-20 15:40:58 175 196 2955 329 24 DESCEND
2024-01-20 15:41:58 172 192 2952 331 24 DESCEND
2024-01-20 15:42:59 171 191 2947 334 24 DESCEND
2024-01-20 15:43:59 173 191 2950 337 24 DESCEND
2024-01-20 15:45:00 174 192 2953 339 24 DESCEND
2024-01-20 15:46:00 198 209 1247 341 28 DESCEND
2024-01-20 15:47:01 128 131 442 342 30 DESCEND
2024-01-20 15:48:01 77 78 251 344 30 DESCEND
2024-01-20 15:49:02 75 82 515 347 30 CLIMBING
2024-01-20 15:50:02 83 92 919 349 29 CLIMBING
2024-01-20 15:51:03 100 102 560 352 30 CLIMBING
2024-01-20 15:52:03 59 58 48 354 30 LANDING
2024-01-20 15:53:04 4 0 48 356 30 LANDED - VS: -173 ft/min